createdAt,value
2023-03-17T00:00:33.546Z,39.85
2023-03-17T00:03:06.805Z,39.60
2023-03-17T00:05:39.253Z,37.15
2023-03-17T00:08:19.415Z,36.03
2023-03-17T00:10:52.494Z,37.17
2023-03-17T00:13:25.149Z,63.05
2023-03-17T00:16:01.729Z,52.03
2023-03-17T00:18:33.910Z,55.35
2023-03-17T00:21:06.514Z,58.42
2023-03-17T00:23:39.935Z,45.72
2023-03-17T00:26:12.634Z,33.60
2023-03-17T00:28:45.681Z,29.20
2023-03-17T00:31:21.323Z,26.77
2023-03-17T00:33:54.785Z,29.27
2023-03-17T00:36:29.490Z,31.15
2023-03-17T00:39:03.662Z,28.95
2023-03-17T00:41:35.798Z,30.55
2023-03-17T00:44:08.122Z,22.50
2023-03-17T00:46:41.621Z,24.60
2023-03-17T00:51:48.834Z,23.25
2023-03-17T00:54:22.479Z,23.35
2023-03-17T00:56:54.597Z,21.77
2023-03-17T00:59:30.025Z,32.03
2023-03-17T01:02:02.086Z,22.05
2023-03-17T01:04:34.124Z,20.50
2023-03-17T01:07:06.395Z,26.08
2023-03-17T01:09:41.342Z,23.23
2023-03-17T01:12:16.421Z,30.77
2023-03-17T01:14:48.390Z,32.83
2023-03-17T01:17:20.937Z,30.70
2023-03-17T01:19:52.900Z,35.70
2023-03-17T01:22:25.641Z,26.85
2023-03-17T01:24:59.002Z,29.85
2023-03-17T01:27:35.187Z,26.00
2023-03-17T01:30:24.299Z,26.48
2023-03-17T01:32:57.643Z,35.67
2023-03-17T01:35:30.324Z,27.65
2023-03-17T01:38:03.520Z,27.50
2023-03-17T01:40:39.010Z,24.15
2023-03-17T01:43:19.372Z,19.98
2023-03-17T01:46:27.493Z,26.60
2023-03-17T01:49:09.494Z,21.58
2023-03-17T01:51:50.066Z,29.73
2023-03-17T01:54:28.296Z,21.13
2023-03-17T01:57:07.602Z,38.17
2023-03-17T01:59:45.657Z,31.50
2023-03-17T02:02:22.671Z,25.38
2023-03-17T02:04:55.487Z,22.30
2023-03-17T02:07:28.185Z,21.27
2023-03-17T02:10:00.865Z,24.70
2023-03-17T02:12:35.644Z,21.80
2023-03-17T02:15:09.453Z,24.33
2023-03-17T02:17:41.549Z,27.55
2023-03-17T02:20:51.837Z,27.23
2023-03-17T02:23:25.742Z,26.10
2023-03-17T02:25:57.763Z,33.67
2023-03-17T02:28:31.705Z,29.45
2023-03-17T02:31:04.697Z,36.78
2023-03-17T02:33:36.665Z,39.92
2023-03-17T02:36:09.686Z,30.27
2023-03-17T02:38:44.559Z,24.60
2023-03-17T02:41:16.990Z,28.00
2023-03-17T02:43:49.351Z,31.27
2023-03-17T02:46:21.361Z,27.73
2023-03-17T02:48:54.612Z,31.50
2023-03-17T02:51:27.176Z,58.05
2023-03-17T02:54:00.521Z,61.20
2023-03-17T02:56:32.862Z,19.33
2023-03-17T02:59:05.314Z,49.15
2023-03-17T03:01:38.937Z,231.05
2023-03-17T03:04:12.018Z,128.93
2023-03-17T03:06:44.853Z,100.32
2023-03-17T03:09:18.263Z,188.13
2023-03-17T03:11:50.301Z,138.32
2023-03-17T03:14:22.241Z,116.20
2023-03-17T03:16:54.472Z,78.35
2023-03-17T03:19:26.485Z,75.85
2023-03-17T03:21:58.452Z,27.02
2023-03-17T03:24:32.277Z,49.97
2023-03-17T03:27:04.522Z,111.05
2023-03-17T03:29:36.896Z,160.25
2023-03-17T03:32:08.889Z,323.40
2023-03-17T03:34:41.259Z,141.95
2023-03-17T03:37:13.361Z,194.38
2023-03-17T03:39:47.786Z,83.00
2023-03-17T03:42:19.760Z,32.05
2023-03-17T03:44:51.666Z,136.80
2023-03-17T03:47:23.644Z,71.78
2023-03-17T03:49:55.568Z,167.95
2023-03-17T03:52:27.590Z,98.07
2023-03-17T03:55:01.042Z,94.50
2023-03-17T03:57:33.057Z,44.83
2023-03-17T04:00:07.503Z,28.70
2023-03-17T04:02:46.781Z,42.08
2023-03-17T04:05:20.609Z,29.77
2023-03-17T04:07:53.037Z,63.72
2023-03-17T04:10:26.560Z,33.88
2023-03-17T04:12:58.604Z,31.77
2023-03-17T04:15:30.554Z,44.53
2023-03-17T04:18:02.701Z,61.53
2023-03-17T04:20:34.776Z,22.92
2023-03-17T04:23:08.001Z,58.15
2023-03-17T04:25:41.388Z,122.32
2023-03-17T04:28:13.362Z,54.17
2023-03-17T04:30:45.815Z,154.73
2023-03-17T04:33:19.027Z,18.92
2023-03-17T04:35:51.372Z,70.60
2023-03-17T04:38:23.605Z,18.88
2023-03-17T04:40:57.113Z,57.03
2023-03-17T04:43:29.080Z,70.85
2023-03-17T04:46:01.171Z,24.40
2023-03-17T04:48:33.116Z,25.50
2023-03-17T04:51:05.411Z,19.08
2023-03-17T04:53:37.585Z,15.38
2023-03-17T04:56:11.091Z,28.95
2023-03-17T04:58:43.025Z,24.02
2023-03-17T05:01:15.025Z,69.53
2023-03-17T05:03:47.279Z,85.90
2023-03-17T05:06:19.422Z,34.88
2023-03-17T05:08:51.530Z,20.52
2023-03-17T05:11:24.909Z,38.75
2023-03-17T05:13:57.125Z,36.80
2023-03-17T05:16:29.161Z,31.00
2023-03-17T05:19:01.126Z,63.58
2023-03-17T05:21:33.186Z,34.33
2023-03-17T05:24:05.567Z,22.75
2023-03-17T05:26:40.103Z,23.88
2023-03-17T05:29:12.099Z,46.30
2023-03-17T05:31:44.379Z,24.40
2023-03-17T05:34:16.415Z,23.42
2023-03-17T05:36:48.847Z,15.20
2023-03-17T05:39:20.851Z,19.15
2023-03-17T05:41:54.182Z,15.65
2023-03-17T05:44:26.295Z,19.08
2023-03-17T05:46:59.806Z,38.38
2023-03-17T05:49:32.149Z,28.50
2023-03-17T05:52:04.222Z,24.23
2023-03-17T05:54:36.229Z,30.63
2023-03-17T05:57:09.638Z,25.58
2023-03-17T05:59:42.681Z,30.38
2023-03-17T06:02:15.711Z,25.10
2023-03-17T06:04:47.693Z,20.85
2023-03-17T06:07:20.622Z,27.30
2023-03-17T06:09:52.574Z,25.13
2023-03-17T06:12:26.467Z,22.65
2023-03-17T06:14:58.404Z,25.48
2023-03-17T06:17:30.405Z,23.63
2023-03-17T06:20:04.194Z,27.58
2023-03-17T06:22:37.430Z,31.45
2023-03-17T06:25:10.753Z,27.48
2023-03-17T06:27:44.814Z,33.45
2023-03-17T06:30:17.152Z,29.23
2023-03-17T06:32:49.252Z,39.75
2023-03-17T06:35:22.532Z,40.47
2023-03-17T06:37:54.970Z,30.75
2023-03-17T06:40:27.056Z,40.67
2023-03-17T06:43:01.363Z,35.75
2023-03-17T06:45:33.683Z,34.92
2023-03-17T06:48:07.100Z,29.77
2023-03-17T06:50:39.355Z,31.67
2023-03-17T06:53:11.467Z,34.35
2023-03-17T06:55:43.547Z,39.10
2023-03-17T06:58:17.142Z,31.42
2023-03-17T07:00:49.227Z,31.58
2023-03-17T07:03:25.608Z,23.75
2023-03-17T07:05:58.145Z,24.42
2023-03-17T07:08:30.969Z,21.60
2023-03-17T07:11:04.653Z,21.58
2023-03-17T07:13:39.315Z,16.40
2023-03-17T07:16:12.475Z,15.52
2023-03-17T07:18:45.072Z,19.55
2023-03-17T07:21:17.519Z,25.35
2023-03-17T07:23:49.536Z,32.90
2023-03-17T07:26:21.520Z,23.33
2023-03-17T07:28:55.081Z,23.23
2023-03-17T07:31:27.110Z,21.23
2023-03-17T07:33:59.238Z,21.50
2023-03-17T07:36:31.189Z,17.15
2023-03-17T07:39:03.930Z,16.83
2023-03-17T07:41:36.748Z,18.73
2023-03-17T07:44:11.479Z,19.90
2023-03-17T07:46:43.522Z,23.77
2023-03-17T07:49:15.494Z,25.30
2023-03-17T07:51:47.580Z,21.40
2023-03-17T07:54:19.636Z,20.20
2023-03-17T07:56:51.582Z,15.88
2023-03-17T07:59:25.451Z,23.67
2023-03-17T08:01:58.362Z,20.17
2023-03-17T08:04:30.701Z,22.27
2023-03-17T08:07:03.278Z,13.43
2023-03-17T08:09:35.488Z,14.77
2023-03-17T08:12:09.323Z,12.68
2023-03-17T08:14:42.837Z,11.88
2023-03-17T08:17:14.824Z,12.18
2023-03-17T08:19:47.052Z,13.30
2023-03-17T08:22:19.437Z,8.88
2023-03-17T08:24:52.068Z,9.02
2023-03-17T08:27:24.210Z,10.18
2023-03-17T08:29:57.638Z,8.20
2023-03-17T08:32:29.687Z,8.85
2023-03-17T08:35:01.877Z,7.65
2023-03-17T08:37:33.814Z,6.90
2023-03-17T08:40:06.624Z,8.63
2023-03-17T08:42:38.889Z,9.05
2023-03-17T08:45:13.645Z,9.55
2023-03-17T08:47:46.338Z,8.23
2023-03-17T08:50:21.487Z,7.22
2023-03-17T08:52:54.337Z,8.05
2023-03-17T08:55:26.397Z,6.82
2023-03-17T08:57:58.319Z,7.15
2023-03-17T09:00:31.865Z,6.05
2023-03-17T09:03:05.813Z,6.03
2023-03-17T09:05:38.673Z,7.50
2023-03-17T09:08:12.145Z,5.03
2023-03-17T09:10:44.547Z,4.45
2023-03-17T09:13:17.815Z,4.25
2023-03-17T09:15:51.985Z,4.78
2023-03-17T09:18:24.352Z,6.65
2023-03-17T09:20:56.532Z,3.47
2023-03-17T09:23:28.477Z,3.10
2023-03-17T09:26:00.942Z,3.30
2023-03-17T09:28:33.937Z,5.93
2023-03-17T09:31:11.539Z,4.13
2023-03-17T09:33:43.913Z,4.65
2023-03-17T09:36:15.886Z,6.32
2023-03-17T09:38:47.858Z,5.85
2023-03-17T09:41:57.127Z,4.78
2023-03-17T09:44:54.645Z,4.97
2023-03-17T09:47:46.454Z,5.18
2023-03-17T09:50:24.085Z,9.02
2023-03-17T09:52:58.531Z,4.07
2023-03-17T09:55:32.796Z,6.43
2023-03-17T09:58:05.083Z,7.30
2023-03-17T10:00:37.008Z,2.40
2023-03-17T10:03:11.573Z,2.67
2023-03-17T10:05:43.792Z,4.10
2023-03-17T10:08:30.828Z,4.47
2023-03-17T10:11:14.900Z,3.35
2023-03-17T10:13:55.029Z,4.47
2023-03-17T10:16:38.248Z,2.47
2023-03-17T10:19:21.799Z,4.82
2023-03-17T10:21:59.081Z,7.22
2023-03-17T10:24:33.117Z,5.80
2023-03-17T10:27:06.613Z,4.43
2023-03-17T10:29:38.627Z,8.77
2023-03-17T10:32:13.275Z,4.78
2023-03-17T10:34:48.704Z,3.83
2023-03-17T10:37:23.908Z,6.15
2023-03-17T10:39:57.560Z,3.13
2023-03-17T10:42:32.357Z,5.13
2023-03-17T10:45:13.907Z,3.20
2023-03-17T10:47:48.155Z,3.20
2023-03-17T10:50:24.680Z,5.32
2023-03-17T10:52:59.292Z,7.88
2023-03-17T10:55:33.231Z,8.48
2023-03-17T10:58:07.895Z,4.65
2023-03-17T11:00:52.030Z,11.55
2023-03-17T11:03:27.502Z,4.18
2023-03-17T11:06:04.353Z,7.13
2023-03-17T11:08:40.451Z,6.35
2023-03-17T11:11:23.529Z,4.38
2023-03-17T11:14:02.243Z,6.47
2023-03-17T11:16:37.351Z,3.72
2023-03-17T11:19:16.137Z,6.47
2023-03-17T11:22:00.151Z,4.95
2023-03-17T11:24:34.160Z,4.57
2023-03-17T11:27:16.113Z,6.80
2023-03-17T11:30:16.660Z,5.35
2023-03-17T11:32:56.543Z,7.35
2023-03-17T11:35:43.505Z,5.82
2023-03-17T11:38:22.713Z,8.35
2023-03-17T11:41:09.684Z,7.32
2023-03-17T11:43:54.597Z,3.88
2023-03-17T11:46:30.990Z,5.43
2023-03-17T11:49:11.077Z,3.97
2023-03-17T11:51:54.539Z,4.28
2023-03-17T11:54:36.817Z,6.90
2023-03-17T11:57:13.472Z,6.63
2023-03-17T11:59:52.253Z,6.07
2023-03-17T12:02:30.756Z,5.13
2023-03-17T12:05:06.374Z,3.85
2023-03-17T12:07:44.680Z,6.38
2023-03-17T12:10:22.991Z,5.00
2023-03-17T12:12:59.665Z,8.68
2023-03-17T12:15:36.407Z,4.05
2023-03-17T12:18:14.117Z,4.53
2023-03-17T12:20:51.006Z,6.85
2023-03-17T12:23:33.088Z,5.70
2023-03-17T12:26:12.525Z,6.68
2023-03-17T12:28:51.244Z,10.97
2023-03-17T12:31:28.992Z,7.30
2023-03-17T12:34:08.502Z,8.15
2023-03-17T12:36:41.562Z,3.67
2023-03-17T12:39:16.375Z,4.65
2023-03-17T12:42:08.918Z,7.53
2023-03-17T12:44:58.216Z,5.88
2023-03-17T12:47:45.051Z,6.53
2023-03-17T12:50:46.436Z,6.45
2023-03-17T12:53:28.621Z,5.85
2023-03-17T12:56:10.008Z,7.50
2023-03-17T12:58:46.585Z,8.20
2023-03-17T13:01:27.269Z,6.40
2023-03-17T13:04:18.254Z,6.22
2023-03-17T13:06:58.495Z,8.18
2023-03-17T13:09:43.117Z,12.07
2023-03-17T13:12:52.579Z,12.02
2023-03-17T13:15:50.639Z,11.55
2023-03-17T13:18:29.728Z,13.52
2023-03-17T13:21:13.817Z,8.63
2023-03-17T13:23:48.173Z,8.38
2023-03-17T13:26:22.978Z,6.85
2023-03-17T13:28:54.929Z,7.10
2023-03-17T13:31:36.786Z,15.20
2023-03-17T13:34:14.356Z,12.48
2023-03-17T13:36:58.281Z,6.22
2023-03-17T13:40:01.728Z,6.72
2023-03-17T13:43:09.976Z,10.32
2023-03-17T13:45:44.662Z,9.23
2023-03-17T13:48:36.384Z,13.93
2023-03-17T13:51:18.611Z,15.55
2023-03-17T13:53:55.493Z,22.65
2023-03-17T13:56:46.672Z,17.83
2023-03-17T13:59:19.805Z,9.73
2023-03-17T14:01:57.677Z,18.33
2023-03-17T14:04:41.722Z,13.07
2023-03-17T14:07:18.936Z,15.32
2023-03-17T14:09:55.614Z,14.35
2023-03-17T14:12:36.821Z,12.73
2023-03-17T14:15:16.542Z,13.57
2023-03-17T14:17:54.041Z,13.95
2023-03-17T14:20:28.221Z,7.88
2023-03-17T14:23:02.144Z,11.35
2023-03-17T14:25:36.189Z,11.35
2023-03-17T14:28:13.967Z,14.30
2023-03-17T14:30:52.427Z,9.45
2023-03-17T14:33:27.075Z,12.43
2023-03-17T14:36:02.312Z,13.07
2023-03-17T14:38:36.940Z,8.07
2023-03-17T14:41:17.749Z,8.43
2023-03-17T14:43:52.238Z,6.32
2023-03-17T14:46:26.312Z,10.40
2023-03-17T14:49:01.182Z,5.85
2023-03-17T14:51:36.638Z,8.88
2023-03-17T14:54:14.376Z,7.90
2023-03-17T14:56:48.841Z,9.93
2023-03-17T14:59:27.041Z,8.35
2023-03-17T15:02:01.811Z,7.18
2023-03-17T15:04:34.530Z,8.88
2023-03-17T15:07:31.376Z,8.20
2023-03-17T15:10:05.059Z,10.82
2023-03-17T15:12:37.521Z,7.85
2023-03-17T15:15:21.668Z,8.68
2023-03-17T15:17:56.935Z,12.30
2023-03-17T15:20:31.685Z,11.95
2023-03-17T15:23:15.206Z,11.30
2023-03-17T15:25:51.284Z,11.38
2023-03-17T15:28:25.991Z,9.88
2023-03-17T15:31:11.458Z,11.05
2023-03-17T15:33:43.446Z,11.15
2023-03-17T15:36:31.437Z,13.40
2023-03-17T15:39:06.246Z,9.80
2023-03-17T15:41:38.185Z,13.07
2023-03-17T15:44:10.111Z,21.80
2023-03-17T15:46:42.219Z,13.57
2023-03-17T15:49:14.185Z,9.60
2023-03-17T15:51:46.222Z,11.25
2023-03-17T15:54:20.196Z,14.73
2023-03-17T15:56:52.316Z,10.82
2023-03-17T15:59:24.288Z,10.85
2023-03-17T16:01:56.333Z,11.88
2023-03-17T16:04:28.669Z,11.90
2023-03-17T16:07:00.812Z,8.43
2023-03-17T16:09:35.509Z,11.80
2023-03-17T16:12:11.074Z,15.77
2023-03-17T16:14:43.184Z,25.60
2023-03-17T16:17:19.801Z,31.10
2023-03-17T16:19:52.781Z,47.10
2023-03-17T16:22:37.687Z,45.65
2023-03-17T16:25:25.692Z,30.02
2023-03-17T16:27:59.469Z,31.00
2023-03-17T16:30:33.938Z,48.13
2023-03-17T16:33:15.274Z,47.40
2023-03-17T16:35:52.471Z,51.55
2023-03-17T16:38:27.186Z,39.63
2023-03-17T16:41:01.947Z,65.63
2023-03-17T16:43:37.968Z,49.38
2023-03-17T16:46:11.527Z,43.80
2023-03-17T16:48:43.549Z,35.75
2023-03-17T16:51:15.838Z,28.10
2023-03-17T16:53:48.010Z,27.45
2023-03-17T16:56:25.199Z,37.67
2023-03-17T16:58:57.542Z,25.40
2023-03-17T17:01:30.142Z,29.83
2023-03-17T17:04:02.167Z,29.20
2023-03-17T17:06:34.137Z,33.92
2023-03-17T17:09:06.161Z,20.23
2023-03-17T17:11:39.598Z,26.70
2023-03-17T17:14:11.536Z,32.65
2023-03-17T17:16:44.040Z,19.77
2023-03-17T17:19:17.114Z,27.08
2023-03-17T17:21:49.133Z,34.13
2023-03-17T17:24:21.434Z,24.08
2023-03-17T17:26:54.799Z,18.88
2023-03-17T17:29:26.927Z,19.27
2023-03-17T17:31:58.919Z,19.27
2023-03-17T17:34:31.052Z,27.35
2023-03-17T17:37:03.094Z,25.88
2023-03-17T17:39:35.272Z,25.33
2023-03-17T17:42:10.255Z,34.33
2023-03-17T17:44:42.955Z,27.00
2023-03-17T17:47:15.998Z,19.85
2023-03-17T17:49:48.053Z,19.10
2023-03-17T17:52:20.102Z,22.13
2023-03-17T17:54:52.095Z,18.20
2023-03-17T17:57:25.709Z,27.08
2023-03-17T17:59:57.981Z,25.45
2023-03-17T18:02:30.061Z,25.15
2023-03-17T18:05:02.274Z,28.33
2023-03-17T18:07:34.289Z,25.05
2023-03-17T18:10:07.494Z,21.23
2023-03-17T18:12:40.822Z,22.23
2023-03-17T18:15:13.093Z,19.33
2023-03-17T18:17:45.209Z,18.20
2023-03-17T18:20:19.032Z,20.38
2023-03-17T18:22:51.551Z,18.73
2023-03-17T18:25:27.225Z,16.38
2023-03-17T18:28:01.501Z,19.60
2023-03-17T18:30:35.240Z,11.18
2023-03-17T18:33:09.978Z,13.75
2023-03-17T18:35:42.590Z,16.77
2023-03-17T18:38:14.657Z,17.85
2023-03-17T18:40:46.848Z,23.25
2023-03-17T18:43:20.195Z,18.00
2023-03-17T18:45:52.169Z,113.97
2023-03-17T18:48:24.186Z,17.75
2023-03-17T18:50:56.204Z,16.15
2023-03-17T18:53:30.060Z,13.68
2023-03-17T18:56:02.258Z,22.10
2023-03-17T18:58:36.353Z,20.02
2023-03-17T19:01:08.895Z,24.67
2023-03-17T19:03:40.900Z,22.90
2023-03-17T19:06:15.085Z,21.35
2023-03-17T19:08:47.927Z,20.58
2023-03-17T19:11:21.689Z,16.48
2023-03-17T19:13:55.321Z,11.40
2023-03-17T19:16:29.122Z,13.30
2023-03-17T19:19:01.723Z,17.27
2023-03-17T19:21:33.807Z,13.40
2023-03-17T19:24:06.247Z,10.38
2023-03-17T19:26:38.255Z,15.80
2023-03-17T19:29:12.111Z,13.70
2023-03-17T19:31:44.328Z,13.48
2023-03-17T19:34:16.463Z,10.27
2023-03-17T19:36:48.516Z,9.85
2023-03-17T19:39:21.564Z,10.23
2023-03-17T19:41:55.521Z,10.02
2023-03-17T19:44:29.163Z,8.55
2023-03-17T19:47:05.034Z,9.70
2023-03-17T19:49:38.586Z,10.93
2023-03-17T19:52:10.585Z,10.38
2023-03-17T19:54:44.872Z,10.75
2023-03-17T19:57:19.131Z,10.25
2023-03-17T19:59:53.120Z,7.47
2023-03-17T20:02:25.774Z,9.07
2023-03-17T20:04:58.027Z,10.48
2023-03-17T20:07:30.000Z,10.88
2023-03-17T20:10:02.551Z,14.60
2023-03-17T20:12:38.295Z,11.93
2023-03-17T20:15:13.638Z,11.35
2023-03-17T20:17:45.713Z,9.70
2023-03-17T20:20:18.015Z,13.02
2023-03-17T20:22:49.991Z,8.75
2023-03-17T20:25:21.921Z,8.20
2023-03-17T20:27:53.904Z,8.05
2023-03-17T20:30:27.239Z,7.22
2023-03-17T20:33:00.067Z,10.18
2023-03-17T20:35:32.950Z,8.15
2023-03-17T20:38:05.445Z,6.20
2023-03-17T20:40:37.749Z,5.60
2023-03-17T20:43:09.874Z,5.38
2023-03-17T20:45:43.544Z,7.13
2023-03-17T20:48:15.496Z,9.55
2023-03-17T20:50:49.908Z,7.45
2023-03-17T20:53:22.030Z,7.50
2023-03-17T20:55:55.332Z,5.28
2023-03-17T20:58:27.845Z,7.47
2023-03-17T21:01:01.927Z,9.75
2023-03-17T21:03:33.990Z,7.85
2023-03-17T21:06:06.428Z,6.45
2023-03-17T21:08:38.892Z,11.18
2023-03-17T21:11:16.053Z,9.02
2023-03-17T21:13:48.059Z,7.90
2023-03-17T21:16:23.909Z,7.32
2023-03-17T21:18:56.299Z,5.80
2023-03-17T21:21:28.421Z,7.57
2023-03-17T21:24:02.317Z,8.40
2023-03-17T21:26:35.608Z,6.40
2023-03-17T21:29:07.759Z,8.98
2023-03-17T21:31:41.651Z,7.68
2023-03-17T21:34:14.212Z,9.55
2023-03-17T21:36:46.371Z,6.10
2023-03-17T21:39:19.052Z,9.60
2023-03-17T21:41:51.176Z,5.75
2023-03-17T21:44:23.269Z,10.50
2023-03-17T21:46:56.627Z,6.60
2023-03-17T21:49:28.939Z,7.88
2023-03-17T21:52:04.606Z,6.88
2023-03-17T21:54:37.118Z,15.60
2023-03-17T21:57:12.207Z,5.40
2023-03-17T21:59:44.239Z,6.32
2023-03-17T22:02:17.991Z,8.13
2023-03-17T22:04:50.288Z,9.05
2023-03-17T22:07:23.565Z,8.45
2023-03-17T22:09:57.861Z,5.75
2023-03-17T22:12:29.835Z,7.65
2023-03-17T22:15:02.054Z,9.95
2023-03-17T22:17:36.403Z,7.82
2023-03-17T22:20:10.684Z,3.47
2023-03-17T22:22:42.643Z,5.78
2023-03-17T22:25:14.792Z,8.02
2023-03-17T22:27:46.865Z,8.82
2023-03-17T22:30:19.068Z,8.02
2023-03-17T22:32:53.372Z,8.75
2023-03-17T22:35:25.372Z,12.13
2023-03-17T22:37:57.310Z,6.80
2023-03-17T22:40:30.411Z,6.20
2023-03-17T22:43:03.536Z,6.18
2023-03-17T22:45:35.629Z,6.07
2023-03-17T22:48:08.984Z,6.95
2023-03-17T22:50:42.267Z,7.93
2023-03-17T22:53:14.182Z,6.85
2023-03-17T22:55:46.407Z,9.70
2023-03-17T22:58:18.363Z,8.00
2023-03-17T23:00:50.475Z,7.97
2023-03-17T23:03:24.377Z,7.07
2023-03-17T23:05:58.802Z,8.13
2023-03-17T23:08:32.234Z,6.68
2023-03-17T23:11:06.591Z,6.47
2023-03-17T23:13:40.439Z,6.40
2023-03-17T23:16:12.775Z,7.93
2023-03-17T23:18:47.090Z,6.00
2023-03-17T23:21:22.712Z,8.43
2023-03-17T23:23:55.585Z,9.10
2023-03-17T23:26:29.161Z,8.80
2023-03-17T23:29:01.187Z,4.72
2023-03-17T23:31:34.184Z,6.75
2023-03-17T23:34:08.280Z,5.85
2023-03-17T23:36:40.689Z,5.85
2023-03-17T23:39:12.734Z,5.38
2023-03-17T23:41:45.119Z,5.68
2023-03-17T23:44:17.099Z,8.10
2023-03-17T23:46:49.045Z,9.25
2023-03-17T23:49:22.426Z,5.63
2023-03-17T23:51:54.666Z,5.13
2023-03-17T23:54:26.607Z,6.05
2023-03-17T23:56:58.554Z,8.25
2023-03-17T23:59:30.618Z,12.70
